Time;durP1;ratioP1;P1;durP2;ratioP2;P2;SDS_P1;SDS_P2;PMS_P1;PMS_P2;Temp;Humidity;BMP_temperature;BMP_pressure;BME280_temperature;BME280_humidity;BME280_pressure;Samples;Min_cycle;Max_cycle;Signal;HPM_P1;HPM_P2
2022/10/22 00:00:29;;;;;;;12.15;8.20;;;13.60;99.90;;;;;;5053627;28;20126;-83
2022/10/22 00:02:55;;;;;;;10.73;9.55;;;13.60;99.90;;;;;;5060589;28;20051;-83
2022/10/22 00:05:20;;;;;;;13.98;10.25;;;13.60;99.90;;;;;;5051050;28;20079;-83
2022/10/22 00:07:46;;;;;;;13.52;10.30;;;13.60;99.90;;;;;;5042509;28;20446;-83
2022/10/22 00:10:12;;;;;;;9.57;8.45;;;13.50;99.90;;;;;;5028170;28;20072;-82
2022/10/22 00:12:38;;;;;;;10.20;8.90;;;13.50;99.90;;;;;;5041927;28;20092;-83
2022/10/22 00:15:05;;;;;;;10.60;8.45;;;13.50;99.90;;;;;;5059601;28;20487;-84
2022/10/22 00:17:31;;;;;;;12.68;9.50;;;13.40;99.90;;;;;;5044016;28;20048;-83
2022/10/22 00:19:57;;;;;;;11.77;9.05;;;13.40;99.90;;;;;;5042664;28;20045;-83
2022/10/22 00:22:22;;;;;;;10.55;9.35;;;13.40;99.90;;;;;;5051364;28;20048;-83
2022/10/22 00:24:48;;;;;;;11.65;9.50;;;13.40;99.90;;;;;;5051437;28;20272;-83
2022/10/22 00:27:14;;;;;;;11.95;9.30;;;13.30;99.90;;;;;;5061483;28;20106;-84
2022/10/22 00:29:43;;;;;;;10.80;9.43;;;13.30;99.90;;;;;;5040162;28;20036;-83
2022/10/22 00:32:09;;;;;;;11.50;9.02;;;13.30;99.90;;;;;;5022804;28;20049;-83
2022/10/22 00:34:35;;;;;;;10.93;9.57;;;13.30;99.90;;;;;;5039185;28;20050;-83
2022/10/22 00:37:00;;;;;;;11.10;8.90;;;13.30;99.90;;;;;;5051568;28;20044;-83
2022/10/22 00:39:26;;;;;;;14.80;10.15;;;13.30;99.90;;;;;;5062099;28;20119;-84
2022/10/22 00:41:55;;;;;;;13.48;10.95;;;13.20;99.90;;;;;;5038684;28;20032;-83
2022/10/22 00:45:01;;;;;;;13.68;10.88;;;13.20;99.90;;;;;;5041776;28;20158;-83
2022/10/22 00:47:31;;;;;;;12.52;8.57;;;13.20;99.90;;;;;;5039974;28;20052;-83
2022/10/22 00:49:58;;;;;;;12.38;11.07;;;13.20;99.90;;;;;;5038459;28;20044;-83
2022/10/22 00:52:24;;;;;;;13.00;10.90;;;13.10;99.90;;;;;;5025540;28;20048;-83
2022/10/22 00:54:51;;;;;;;14.65;10.45;;;13.10;99.90;;;;;;5020332;28;20040;-77
2022/10/22 00:57:18;;;;;;;13.68;10.57;;;13.10;99.90;;;;;;5014924;28;20059;-77
2022/10/22 00:59:45;;;;;;;11.98;9.75;;;13.10;99.90;;;;;;5048520;28;20049;-76
2022/10/22 01:02:10;;;;;;;17.38;13.15;;;13.00;99.90;;;;;;5056953;28;20109;-76
2022/10/22 01:04:36;;;;;;;13.13;9.98;;;13.00;99.90;;;;;;5015926;28;20048;-76
2022/10/22 01:07:03;;;;;;;15.43;10.63;;;13.00;99.90;;;;;;5057585;28;20136;-77
2022/10/22 01:09:41;;;;;;;14.80;11.20;;;13.00;99.90;;;;;;5035612;28;20044;-83
2022/10/22 01:12:19;;;;;;;13.00;10.48;;;12.90;99.90;;;;;;5041707;28;20082;-83
2022/10/22 01:15:11;;;;;;;14.50;10.98;;;12.90;99.90;;;;;;5055394;28;20044;-83
2022/10/22 01:17:46;;;;;;;18.17;12.35;;;12.80;99.90;;;;;;5060182;28;20128;-83
2022/10/22 01:20:49;;;;;;;13.40;11.10;;;12.80;99.90;;;;;;5054921;28;20135;-83
2022/10/22 01:23:47;;;;;;;13.40;10.55;;;12.80;99.90;;;;;;5013239;28;20064;-81
2022/10/22 01:26:21;;;;;;;15.13;12.13;;;12.70;99.90;;;;;;5041662;28;20074;-83
2022/10/22 01:29:09;;;;;;;18.33;13.93;;;12.70;99.90;;;;;;5049907;28;20097;-82
2022/10/22 01:31:43;;;;;;;18.73;14.52;;;12.80;99.90;;;;;;5060116;28;20049;-82
2022/10/22 01:34:17;;;;;;;20.25;13.57;;;12.80;99.90;;;;;;5039660;28;20052;-82
2022/10/22 01:36:45;;;;;;;13.80;11.00;;;12.80;99.90;;;;;;5037447;28;20163;-82
2022/10/22 01:39:13;;;;;;;15.65;12.75;;;12.80;99.90;;;;;;5035930;28;20055;-83
2022/10/22 01:41:44;;;;;;;24.65;17.17;;;12.80;99.90;;;;;;5029935;28;20521;-82
2022/10/22 01:44:33;;;;;;;16.55;13.30;;;12.80;99.90;;;;;;5043872;28;20125;-82
2022/10/22 01:47:38;;;;;;;15.07;13.50;;;12.90;99.90;;;;;;5058964;28;20507;-83
2022/10/22 01:50:04;;;;;;;17.80;13.43;;;12.90;99.90;;;;;;5042023;28;20125;-83
2022/10/22 01:53:01;;;;;;;13.80;12.18;;;12.80;99.90;;;;;;5058422;28;20085;-76
2022/10/22 01:55:26;;;;;;;14.57;13.07;;;12.90;99.90;;;;;;5031424;28;20491;-76
2022/10/22 01:58:12;;;;;;;16.58;13.95;;;12.80;99.90;;;;;;5062445;28;20127;-76
2022/10/22 02:00:41;;;;;;;22.63;15.00;;;12.80;99.90;;;;;;5054880;28;20099;-82
2022/10/22 02:03:14;;;;;;;18.77;14.82;;;12.80;99.90;;;;;;5033249;28;20310;-81
2022/10/22 02:05:44;;;;;;;20.23;15.18;;;12.80;99.90;;;;;;5054500;28;20095;-81
2022/10/22 02:08:16;;;;;;;23.73;16.70;;;12.80;99.90;;;;;;5055068;28;20495;-81
2022/10/22 02:10:45;;;;;;;22.10;15.68;;;12.80;99.90;;;;;;5042342;28;20779;-81
2022/10/22 02:13:42;;;;;;;15.32;13.82;;;12.80;99.90;;;;;;5048517;28;20102;-81
2022/10/22 02:16:13;;;;;;;19.27;15.77;;;12.80;99.90;;;;;;5053718;28;20155;-81
2022/10/22 02:18:43;;;;;;;;;;;12.80;99.90;;;;;;5054934;28;20128;-81
2022/10/22 02:21:09;;;;;;;20.45;16.65;;;12.80;99.90;;;;;;5048525;28;19952;-81
2022/10/22 02:23:35;;;;;;;17.42;14.77;;;12.80;99.90;;;;;;5036238;28;20045;-81
2022/10/22 02:26:34;;;;;;;17.83;15.43;;;12.80;99.90;;;;;;5063145;28;20044;-81
2022/10/22 02:29:11;;;;;;;19.75;17.38;;;12.80;99.90;;;;;;5036991;28;20075;-82
2022/10/22 02:31:39;;;;;;;22.85;17.10;;;12.80;99.90;;;;;;5060290;28;20078;-82
2022/10/22 02:34:10;;;;;;;21.08;16.75;;;12.80;99.90;;;;;;5050371;28;20596;-82
2022/10/22 02:36:41;;;;;;;21.00;17.10;;;12.80;99.90;;;;;;5043994;28;20044;-83
2022/10/22 02:39:09;;;;;;;19.20;16.60;;;12.80;99.90;;;;;;5062528;28;20040;-82
2022/10/22 02:41:36;;;;;;;19.30;16.95;;;12.80;99.90;;;;;;5045790;28;20053;-82
2022/10/22 02:44:07;;;;;;;20.17;16.42;;;12.80;99.90;;;;;;5031875;28;20036;-82
2022/10/22 02:46:33;;;;;;;21.08;15.85;;;12.80;99.90;;;;;;5036167;28;20053;-82
2022/10/22 02:48:59;;;;;;;19.58;16.35;;;12.80;99.90;;;;;;5044270;28;20094;-82
2022/10/22 02:51:25;;;;;;;28.67;20.75;;;12.70;99.90;;;;;;5065618;28;20052;-82
2022/10/22 02:53:51;;;;;;;21.73;16.23;;;12.70;99.90;;;;;;5033856;28;20661;-82
2022/10/22 02:56:17;;;;;;;24.00;17.27;;;12.70;99.90;;;;;;5047239;28;20040;-82
2022/10/22 02:58:43;;;;;;;16.90;15.02;;;12.70;99.90;;;;;;5049482;28;20044;-83
2022/10/22 03:01:09;;;;;;;22.45;18.33;;;12.70;99.90;;;;;;5039999;28;20057;-76
2022/10/22 03:03:35;;;;;;;21.42;16.83;;;12.60;99.90;;;;;;5031531;28;20051;-83
2022/10/22 03:06:01;;;;;;;18.55;16.65;;;12.60;99.90;;;;;;5020197;28;20407;-82
2022/10/22 03:08:27;;;;;;;19.70;17.65;;;12.60;99.90;;;;;;5041022;28;20052;-82
2022/10/22 03:10:53;;;;;;;27.77;21.33;;;12.60;99.90;;;;;;5042359;28;20040;-82
2022/10/22 03:13:18;;;;;;;19.73;16.15;;;12.60;99.90;;;;;;5023309;28;20247;-83
2022/10/22 03:15:47;;;;;;;20.08;17.88;;;12.60;99.90;;;;;;5038809;28;20054;-82
2022/10/22 03:18:12;;;;;;;19.27;17.27;;;12.50;99.90;;;;;;5031005;28;20588;-82
2022/10/22 03:20:38;;;;;;;24.08;20.90;;;12.50;99.90;;;;;;5044142;28;20049;-82
2022/10/22 03:23:04;;;;;;;29.75;21.80;;;12.50;99.90;;;;;;5061566;28;20392;-82
2022/10/22 03:25:33;;;;;;;24.83;21.05;;;12.50;99.90;;;;;;5041145;28;20052;-82
2022/10/22 03:28:05;;;;;;;21.85;19.45;;;12.40;99.90;;;;;;5023636;28;20040;-83
2022/10/22 03:30:31;;;;;;;30.25;24.02;;;12.50;99.90;;;;;;5053225;28;20037;-83
2022/10/22 03:32:57;;;;;;;20.75;18.35;;;12.50;99.90;;;;;;5039077;28;20041;-83
2022/10/22 03:35:23;;;;;;;21.75;18.75;;;12.50;99.90;;;;;;5039653;28;20052;-82
2022/10/22 03:37:49;;;;;;;21.70;19.63;;;12.40;99.90;;;;;;5041595;28;20049;-83
2022/10/22 03:40:16;;;;;;;29.52;23.13;;;12.40;99.90;;;;;;5046408;28;20040;-83
2022/10/22 03:42:42;;;;;;;22.15;19.80;;;12.50;99.90;;;;;;5044114;28;20140;-83
2022/10/22 03:45:09;;;;;;;22.65;20.20;;;12.40;99.90;;;;;;5042289;28;20450;-83
2022/10/22 03:47:36;;;;;;;27.52;23.65;;;12.40;99.90;;;;;;5041473;28;20052;-83
2022/10/22 03:50:02;;;;;;;26.40;22.60;;;12.40;99.90;;;;;;5080636;28;20044;-83
2022/10/22 03:52:38;;;;;;;45.47;29.10;;;12.40;99.90;;;;;;5063414;28;20474;-83
2022/10/22 03:55:05;;;;;;;24.50;21.83;;;12.40;99.90;;;;;;5033327;28;20044;-83
2022/10/22 03:57:31;;;;;;;28.02;23.23;;;12.40;99.90;;;;;;5063242;28;20056;-83
2022/10/22 03:59:56;;;;;;;31.63;24.17;;;12.40;99.90;;;;;;5055630;28;20044;-84
2022/10/22 04:02:22;;;;;;;28.00;21.67;;;12.40;99.90;;;;;;5027712;28;20601;-83
2022/10/22 04:04:48;;;;;;;24.92;22.27;;;12.30;99.90;;;;;;5047082;28;20049;-84
2022/10/22 04:07:14;;;;;;;25.65;21.35;;;12.30;99.90;;;;;;5063113;28;20045;-83
2022/10/22 04:09:39;;;;;;;21.83;19.52;;;12.30;99.90;;;;;;5033420;28;20044;-83
2022/10/22 04:12:06;;;;;;;29.67;23.35;;;12.30;99.90;;;;;;5040833;28;20041;-83
2022/10/22 04:14:33;;;;;;;29.40;25.77;;;12.30;99.90;;;;;;5031768;28;20415;-83
2022/10/22 04:17:04;;;;;;;28.27;24.83;;;12.30;99.90;;;;;;5030997;28;20037;-83
2022/10/22 04:19:30;;;;;;;31.80;26.92;;;12.20;99.90;;;;;;5031925;28;20089;-84
2022/10/22 04:21:59;;;;;;;25.42;22.83;;;12.30;99.90;;;;;;5061538;28;20075;-84
2022/10/22 04:24:25;;;;;;;24.83;21.98;;;12.30;99.90;;;;;;5071463;28;20059;-76
2022/10/22 04:26:54;;;;;;;27.55;24.55;;;12.20;99.90;;;;;;5042395;28;20034;-76
2022/10/22 04:29:19;;;;;;;33.70;27.55;;;12.30;99.90;;;;;;5048874;28;20044;-77
2022/10/22 04:31:48;;;;;;;27.77;23.80;;;12.30;99.90;;;;;;5042729;28;20047;-76
2022/10/22 04:34:14;;;;;;;34.30;28.33;;;12.20;99.90;;;;;;5034247;28;20049;-84
2022/10/22 04:36:40;;;;;;;24.77;22.20;;;12.20;99.90;;;;;;5047168;28;20049;-83
2022/10/22 04:39:05;;;;;;;26.42;23.02;;;12.20;99.90;;;;;;5016978;28;20036;-83
2022/10/22 04:41:36;;;;;;;30.63;25.98;;;12.20;99.90;;;;;;5053607;28;20459;-84
2022/10/22 04:44:03;;;;;;;25.77;23.02;;;12.20;99.90;;;;;;5057820;28;20098;-84
2022/10/22 04:46:34;;;;;;;23.88;21.08;;;12.20;99.90;;;;;;5035819;28;20044;-84
2022/10/22 04:49:02;;;;;;;23.80;21.33;;;12.30;99.90;;;;;;5068446;28;20131;-84
2022/10/22 04:51:31;;;;;;;24.90;22.02;;;12.30;99.90;;;;;;5030069;28;20127;-77
2022/10/22 04:53:56;;;;;;;25.58;21.92;;;12.30;99.90;;;;;;5052723;28;20500;-77
2022/10/22 04:56:31;;;;;;;26.55;22.77;;;12.30;99.90;;;;;;5016856;28;20102;-77
2022/10/22 04:59:06;;;;;;;24.33;21.45;;;12.40;99.90;;;;;;5064209;28;20396;-77
2022/10/22 05:01:37;;;;;;;24.42;21.08;;;12.40;99.90;;;;;;5041200;28;20052;-76
2022/10/22 05:04:05;;;;;;;24.95;22.25;;;12.40;99.90;;;;;;5029966;28;20049;-77
2022/10/22 05:06:33;;;;;;;41.65;28.35;;;12.40;99.90;;;;;;5049828;28;20378;-77
2022/10/22 05:09:02;;;;;;;26.27;22.20;;;12.40;99.90;;;;;;5039362;28;20068;-76
2022/10/22 05:11:32;;;;;;;29.92;23.63;;;12.30;99.90;;;;;;5025117;28;20048;-76
2022/10/22 05:13:59;;;;;;;23.42;20.98;;;12.30;99.90;;;;;;5067074;28;20067;-76
2022/10/22 05:16:28;;;;;;;26.48;19.90;;;12.30;99.90;;;;;;5022754;28;20045;-77
2022/10/22 05:18:54;;;;;;;27.13;22.92;;;12.30;99.90;;;;;;5042600;28;20040;-84
2022/10/22 05:21:20;;;;;;;25.70;22.45;;;12.30;99.90;;;;;;5041896;28;20052;-84
2022/10/22 05:23:48;;;;;;;28.02;24.17;;;12.30;99.90;;;;;;5034658;28;20084;-84
2022/10/22 05:26:20;;;;;;;34.72;26.25;;;12.30;99.90;;;;;;5054046;28;20071;-84
2022/10/22 05:28:48;;;;;;;25.10;20.38;;;12.30;99.90;;;;;;5064464;28;20038;-84
2022/10/22 05:31:15;;;;;;;24.17;21.08;;;12.30;99.90;;;;;;5041457;28;20048;-84
2022/10/22 05:33:42;;;;;;;23.67;20.30;;;12.30;99.90;;;;;;5064351;28;20037;-84
2022/10/22 05:36:14;;;;;;;22.05;19.65;;;12.30;99.90;;;;;;5063176;28;20063;-84
2022/10/22 05:38:40;;;;;;;25.90;21.08;;;12.30;99.90;;;;;;5048964;28;20055;-83
2022/10/22 05:41:09;;;;;;;23.90;21.35;;;12.30;99.90;;;;;;5059194;28;20048;-84
2022/10/22 05:43:35;;;;;;;32.28;24.27;;;12.30;99.90;;;;;;5051008;28;20098;-84
2022/10/22 05:46:03;;;;;;;23.88;20.85;;;12.30;99.90;;;;;;5053255;28;20041;-84
2022/10/22 05:48:32;;;;;;;27.35;22.42;;;12.40;99.90;;;;;;5039717;28;20092;-76
2022/10/22 05:51:04;;;;;;;24.30;21.75;;;12.40;99.90;;;;;;5051403;28;20095;-76
2022/10/22 05:53:31;;;;;;;23.33;20.88;;;12.30;99.90;;;;;;5042213;28;20488;-76
2022/10/22 05:56:02;;;;;;;26.10;22.15;;;12.40;99.90;;;;;;5022027;28;20131;-76
2022/10/22 05:58:29;;;;;;;27.05;21.63;;;12.40;99.90;;;;;;5063325;28;20453;-84
2022/10/22 06:00:59;;;;;;;26.67;22.77;;;12.40;99.90;;;;;;5054546;28;20091;-84
2022/10/22 06:03:25;;;;;;;24.02;20.83;;;12.40;99.90;;;;;;5029857;28;20044;-84
2022/10/22 06:05:51;;;;;;;25.27;22.52;;;12.40;99.90;;;;;;5025985;28;20097;-84
2022/10/22 06:08:17;;;;;;;28.70;24.63;;;12.40;99.90;;;;;;5021449;28;20048;-85
2022/10/22 06:10:43;;;;;;;24.90;20.35;;;12.40;99.90;;;;;;5012951;28;20075;-83
2022/10/22 06:13:09;;;;;;;29.23;23.40;;;12.40;99.90;;;;;;5010768;28;20083;-84
2022/10/22 06:15:35;;;;;;;23.40;19.88;;;12.40;99.90;;;;;;5012131;28;20060;-84
2022/10/22 06:18:01;;;;;;;21.65;19.00;;;12.40;99.90;;;;;;5054761;28;20041;-85
2022/10/22 06:20:27;;;;;;;25.55;20.40;;;12.40;99.90;;;;;;5064385;28;20041;-84
2022/10/22 06:22:52;;;;;;;20.30;18.00;;;12.40;99.90;;;;;;5044587;28;20410;-84
2022/10/22 06:25:18;;;;;;;24.60;19.08;;;12.40;99.90;;;;;;5045724;28;20664;-84
2022/10/22 06:27:51;;;;;;;27.40;20.50;;;12.50;99.90;;;;;;5042511;28;20334;-84
2022/10/22 06:30:17;;;;;;;21.73;19.17;;;12.50;99.90;;;;;;5077754;28;20047;-85
2022/10/22 06:32:43;;;;;;;26.17;19.73;;;12.50;99.90;;;;;;5046351;28;20045;-84
2022/10/22 06:35:08;;;;;;;25.25;20.15;;;12.50;99.90;;;;;;5022753;28;20048;-84
2022/10/22 06:37:34;;;;;;;19.40;17.38;;;12.50;99.90;;;;;;5058970;28;20098;-84
2022/10/22 06:40:00;;;;;;;20.42;17.75;;;12.60;99.90;;;;;;5046066;28;20502;-83
2022/10/22 06:42:27;;;;;;;22.30;16.38;;;12.60;99.90;;;;;;5043474;28;20563;-84
2022/10/22 06:44:53;;;;;;;23.58;16.60;;;12.70;99.90;;;;;;5023882;28;20044;-85
2022/10/22 06:47:19;;;;;;;23.52;17.02;;;12.70;99.90;;;;;;5027879;28;20560;-84
2022/10/22 06:49:44;;;;;;;22.30;17.63;;;12.70;99.90;;;;;;5037791;28;20499;-84
2022/10/22 06:52:11;;;;;;;21.65;17.13;;;12.80;99.90;;;;;;5026031;28;20044;-84
2022/10/22 06:54:37;;;;;;;17.05;15.25;;;12.70;99.90;;;;;;5020907;28;20036;-84
2022/10/22 06:57:03;;;;;;;17.25;14.35;;;12.80;99.90;;;;;;5055689;28;20147;-84
2022/10/22 06:59:31;;;;;;;19.73;15.73;;;12.80;99.90;;;;;;5045721;28;20495;-84
2022/10/22 07:01:57;;;;;;;19.00;15.00;;;12.90;99.90;;;;;;5043929;28;20256;-84
2022/10/22 07:04:23;;;;;;;18.35;15.30;;;12.90;99.90;;;;;;5027754;28;20044;-84
2022/10/22 07:06:49;;;;;;;23.13;15.73;;;13.00;99.90;;;;;;5041056;28;20071;-84
2022/10/22 07:09:15;;;;;;;21.20;14.40;;;13.00;99.90;;;;;;5043358;28;20509;-84
2022/10/22 07:11:43;;;;;;;19.33;14.55;;;13.00;99.90;;;;;;5034133;28;21038;-84
2022/10/22 07:14:09;;;;;;;17.90;13.48;;;13.10;99.90;;;;;;5055826;28;20099;-85
2022/10/22 07:16:36;;;;;;;20.23;15.20;;;13.10;99.90;;;;;;5069839;28;20052;-85
2022/10/22 07:19:03;;;;;;;18.08;13.80;;;13.10;99.90;;;;;;5057507;28;20055;-85
2022/10/22 07:21:30;;;;;;;21.98;14.00;;;13.20;99.90;;;;;;5044592;28;20480;-85
2022/10/22 07:23:56;;;;;;;18.70;12.68;;;13.20;99.90;;;;;;5055860;28;20086;-85
2022/10/22 07:26:24;;;;;;;19.55;13.10;;;13.30;99.90;;;;;;5041867;28;20045;-85
2022/10/22 07:28:50;;;;;;;14.65;12.15;;;13.30;99.90;;;;;;5047014;28;20040;-84
2022/10/22 07:31:17;;;;;;;18.15;12.95;;;13.40;99.90;;;;;;5048971;28;20048;-85
2022/10/22 07:33:47;;;;;;;16.95;12.15;;;13.40;99.90;;;;;;5048563;28;20122;-84
2022/10/22 07:36:16;;;;;;;14.57;11.25;;;13.40;99.90;;;;;;5028249;28;20132;-84
2022/10/22 07:38:47;;;;;;;16.30;12.30;;;13.50;99.90;;;;;;5069949;28;20052;-85
2022/10/22 07:41:14;;;;;;;14.73;11.13;;;13.50;99.90;;;;;;5031812;28;21565;-85
2022/10/22 07:43:40;;;;;;;15.25;11.60;;;13.50;99.90;;;;;;5051360;28;20135;-85
2022/10/22 07:46:10;;;;;;;18.05;11.65;;;13.60;99.90;;;;;;5034374;28;20072;-85
2022/10/22 07:48:36;;;;;;;15.23;11.82;;;13.50;99.90;;;;;;5041057;28;20083;-84
2022/10/22 07:51:02;;;;;;;22.65;14.07;;;13.60;99.90;;;;;;5058446;28;20098;-85
2022/10/22 07:53:32;;;;;;;15.98;11.60;;;13.60;99.90;;;;;;5027795;28;20587;-85
2022/10/22 07:55:57;;;;;;;17.73;11.80;;;13.60;99.90;;;;;;5043686;28;20041;-85
2022/10/22 07:58:23;;;;;;;20.27;10.65;;;13.60;99.90;;;;;;5024118;28;20041;-85
2022/10/22 08:00:50;;;;;;;14.73;10.43;;;13.70;99.90;;;;;;5054410;28;20080;-84
2022/10/22 08:03:16;;;;;;;13.85;9.88;;;13.70;99.90;;;;;;5030595;28;20664;-84
2022/10/22 08:05:43;;;;;;;20.20;11.32;;;13.70;99.90;;;;;;5037839;28;20100;-85
2022/10/22 08:08:10;;;;;;;17.80;10.30;;;13.70;99.90;;;;;;5037983;28;20043;-84
2022/10/22 08:10:36;;;;;;;16.75;10.20;;;13.80;99.90;;;;;;5050028;28;20127;-84
2022/10/22 08:13:02;;;;;;;15.93;10.15;;;13.80;99.90;;;;;;5053963;28;20128;-83
2022/10/22 08:15:29;;;;;;;15.48;9.88;;;13.90;99.90;;;;;;5036382;28;20048;-83
2022/10/22 08:17:55;;;;;;;15.93;10.55;;;14.00;99.90;;;;;;5033700;28;20040;-83
2022/10/22 08:20:21;;;;;;;14.18;9.32;;;14.00;99.90;;;;;;5051385;28;20044;-83
2022/10/22 08:22:47;;;;;;;17.00;9.75;;;14.10;99.90;;;;;;5032102;28;20266;-82
2022/10/22 08:25:14;;;;;;;17.60;8.75;;;14.20;99.90;;;;;;5044871;28;21062;-83
2022/10/22 08:27:40;;;;;;;14.40;8.82;;;14.30;99.90;;;;;;5037474;28;20572;-83
2022/10/22 08:30:07;;;;;;;13.98;8.85;;;14.30;99.90;;;;;;5038241;28;20033;-83
2022/10/22 08:32:35;;;;;;;12.10;7.53;;;14.40;99.90;;;;;;5065550;28;20049;-82
2022/10/22 08:35:01;;;;;;;13.32;8.38;;;14.50;99.90;;;;;;5029510;28;20045;-83
2022/10/22 08:37:27;;;;;;;13.43;8.32;;;14.60;99.90;;;;;;5030882;28;20061;-82
2022/10/22 08:39:56;;;;;;;11.80;8.07;;;14.60;99.90;;;;;;5023569;28;20041;-83
2022/10/22 08:42:30;;;;;;;20.10;8.70;;;14.70;99.90;;;;;;5030044;28;20157;-83
2022/10/22 08:44:59;;;;;;;13.73;7.78;;;14.80;99.90;;;;;;5032102;28;20033;-83
2022/10/22 08:47:37;;;;;;;14.02;7.93;;;14.90;99.90;;;;;;5029626;28;20060;-82
2022/10/22 08:50:04;;;;;;;12.10;7.40;;;14.90;99.90;;;;;;5043937;28;20060;-82
2022/10/22 08:52:32;;;;;;;11.88;6.90;;;14.90;99.90;;;;;;5043950;28;20040;-83
2022/10/22 08:55:02;;;;;;;16.63;7.57;;;15.00;99.90;;;;;;5020510;28;20037;-82
2022/10/22 08:57:39;;;;;;;;;;;15.10;99.90;;;;;;5044108;28;20055;-82
2022/10/22 09:00:18;;;;;;;12.85;6.10;;;15.10;99.90;;;;;;5047232;28;19936;-81
2022/10/22 09:03:11;;;;;;;11.57;6.00;;;15.10;99.90;;;;;;5068468;28;20040;-82
2022/10/22 09:06:00;;;;;;;12.05;6.43;;;15.20;99.90;;;;;;5029352;28;20503;-81
2022/10/22 09:08:26;;;;;;;12.07;5.88;;;15.30;99.90;;;;;;5065512;28;20102;-83
2022/10/22 09:11:02;;;;;;;11.95;5.70;;;15.30;99.90;;;;;;5061547;28;20121;-82
2022/10/22 09:13:28;;;;;;;11.52;5.18;;;15.30;99.90;;;;;;5075058;28;20320;-82
2022/10/22 09:16:34;;;;;;;10.43;5.20;;;15.30;99.90;;;;;;5024818;28;20045;-82
2022/10/22 09:19:02;;;;;;;13.43;5.50;;;15.50;99.90;;;;;;5039730;28;20496;-81
2022/10/22 09:21:47;;;;;;;13.27;5.18;;;15.50;99.90;;;;;;5040650;28;20060;-82
2022/10/22 09:24:42;;;;;;;14.27;5.45;;;15.60;99.90;;;;;;5052840;28;20049;-82
2022/10/22 09:27:18;;;;;;;10.80;5.57;;;15.60;99.90;;;;;;5054132;28;20121;-82
2022/10/22 09:29:44;;;;;;;12.63;4.82;;;15.60;99.90;;;;;;5036718;28;20094;-82
2022/10/22 09:32:10;;;;;;;15.07;4.85;;;15.60;99.90;;;;;;5041694;28;20128;-82
2022/10/22 09:34:36;;;;;;;12.32;5.60;;;15.60;99.90;;;;;;5058144;28;20455;-82
2022/10/22 09:37:05;;;;;;;15.30;5.38;;;15.60;99.90;;;;;;5044960;28;20048;-82
2022/10/22 09:39:44;;;;;;;12.07;5.40;;;15.60;99.90;;;;;;5057085;28;20163;-83
2022/10/22 09:42:14;;;;;;;11.15;5.10;;;15.60;99.90;;;;;;5059358;28;20045;-83
2022/10/22 09:44:40;;;;;;;;;;;15.70;99.90;;;;;;5065646;28;20063;-83
2022/10/22 09:47:25;;;;;;;19.88;6.20;;;15.60;99.90;;;;;;5057937;28;19921;-83
2022/10/22 09:50:16;;;;;;;14.15;5.32;;;15.60;99.90;;;;;;5064198;28;20847;-84
2022/10/22 09:52:41;;;;;;;14.02;5.53;;;15.70;99.90;;;;;;5077385;28;20040;-84
2022/10/22 09:55:17;;;;;;;16.10;5.78;;;15.70;99.90;;;;;;5063383;28;20037;-84
2022/10/22 09:57:43;;;;;;;15.55;6.03;;;15.60;99.90;;;;;;5059365;28;20121;-83
2022/10/22 10:00:11;;;;;;;11.52;5.20;;;15.60;99.90;;;;;;5039734;28;20056;-84
2022/10/22 10:02:42;;;;;;;13.32;5.68;;;15.60;99.90;;;;;;5075491;28;20079;-83
2022/10/22 10:05:18;;;;;;;14.45;5.78;;;15.60;99.90;;;;;;5052563;28;20040;-82
2022/10/22 10:07:46;;;;;;;12.48;5.40;;;15.60;99.90;;;;;;5045824;28;20053;-84
2022/10/22 10:10:45;;;;;;;10.80;4.90;;;15.60;99.90;;;;;;5042297;28;20120;-83
2022/10/22 10:13:34;;;;;;;14.07;5.28;;;15.70;99.90;;;;;;5063169;28;20110;-84
2022/10/22 10:16:18;;;;;;;13.32;5.95;;;15.70;99.90;;;;;;5055425;28;20489;-85
2022/10/22 10:19:09;;;;;;;14.52;5.60;;;15.70;99.90;;;;;;5045948;28;20121;-85
2022/10/22 10:21:43;;;;;;;12.85;6.68;;;15.80;99.90;;;;;;5063791;28;20418;-84
2022/10/22 10:24:38;;;;;;;14.73;5.97;;;15.80;99.90;;;;;;5048040;28;20040;-85
2022/10/22 10:27:35;;;;;;;10.60;5.45;;;15.80;99.90;;;;;;5055905;28;20045;-85
2022/10/22 10:30:08;;;;;;;10.68;6.00;;;15.90;99.90;;;;;;5056890;28;20060;-85
2022/10/22 10:32:57;;;;;;;15.70;7.13;;;15.90;99.90;;;;;;5048809;28;20076;-85
2022/10/22 10:35:39;;;;;;;12.88;5.95;;;15.90;99.90;;;;;;5035773;28;20045;-86
2022/10/22 10:38:33;;;;;;;13.15;6.78;;;15.90;99.90;;;;;;5051763;28;20488;-85
2022/10/22 10:41:24;;;;;;;15.75;6.63;;;16.00;99.90;;;;;;5049053;28;20693;-85
2022/10/22 10:44:08;;;;;;;11.82;6.38;;;16.10;99.90;;;;;;5055317;28;20068;-85
2022/10/22 10:46:48;;;;;;;13.13;6.20;;;16.10;99.90;;;;;;5040499;28;20512;-85
2022/10/22 10:49:25;;;;;;;;;;;16.10;99.90;;;;;;5055120;28;20048;-84
2022/10/22 10:51:59;;;;;;;12.85;7.07;;;16.00;99.90;;;;;;5046292;28;19966;-84
2022/10/22 10:54:45;;;;;;;12.50;7.32;;;16.00;99.90;;;;;;5037777;28;20048;-86
2022/10/22 10:57:30;;;;;;;12.90;7.70;;;15.90;99.90;;;;;;5066084;28;20510;-85
2022/10/22 11:00:08;;;;;;;15.27;7.50;;;15.90;99.90;;;;;;5054219;28;20041;-85
2022/10/22 11:03:13;;;;;;;13.60;8.35;;;15.90;99.90;;;;;;5046123;28;20048;-84
2022/10/22 11:05:50;;;;;;;11.95;7.15;;;15.90;99.90;;;;;;5056808;28;20612;-84
2022/10/22 11:08:22;;;;;;;11.60;7.38;;;15.90;99.90;;;;;;5062030;28;20056;-84
2022/10/22 11:10:53;;;;;;;13.13;7.65;;;15.80;99.90;;;;;;5044908;28;20049;-88
2022/10/22 11:14:01;;;;;;;14.25;9.15;;;15.90;99.90;;;;;;5060931;28;20555;-79
2022/10/22 11:16:49;;;;;;;14.57;8.23;;;15.90;99.90;;;;;;5014635;28;20659;-76
2022/10/22 11:19:19;;;;;;;18.10;8.80;;;15.80;99.90;;;;;;5033315;28;20049;-79
2022/10/22 11:21:59;;;;;;;14.00;8.75;;;15.80;99.90;;;;;;5058509;28;20580;-78
2022/10/22 11:24:50;;;;;;;16.92;8.68;;;15.80;99.90;;;;;;5054037;28;20329;-78
2022/10/22 11:27:30;;;;;;;14.27;9.15;;;15.80;99.90;;;;;;5051567;28;20059;-79
2022/10/22 11:30:11;;;;;;;13.88;9.52;;;15.80;99.90;;;;;;5056060;28;20534;-84
2022/10/22 11:32:40;;;;;;;14.55;9.65;;;15.80;99.90;;;;;;5042859;28;20037;-86
2022/10/22 11:35:13;;;;;;;14.57;8.82;;;15.80;99.90;;;;;;5056148;28;20437;-83
2022/10/22 11:37:41;;;;;;;15.27;9.18;;;15.80;99.90;;;;;;5036877;28;20093;-77
2022/10/22 11:40:15;;;;;;;12.00;9.07;;;15.90;99.90;;;;;;5034486;28;20044;-84
2022/10/22 11:42:51;;;;;;;14.48;8.88;;;16.00;99.90;;;;;;5049286;28;20546;-84
2022/10/22 11:45:16;;;;;;;18.15;10.75;;;16.10;99.90;;;;;;5035106;28;20052;-83
2022/10/22 11:48:07;;;;;;;14.40;8.85;;;16.10;99.90;;;;;;5062196;28;20093;-84
2022/10/22 11:50:56;;;;;;;13.57;8.35;;;16.20;99.90;;;;;;5031272;28;20071;-85
2022/10/22 11:53:25;;;;;;;14.63;8.85;;;16.20;99.90;;;;;;5069794;28;20040;-84
2022/10/22 11:56:26;;;;;;;15.35;8.38;;;16.20;99.90;;;;;;5045476;28;20060;-84
2022/10/22 11:58:54;;;;;;;12.70;7.97;;;16.20;99.90;;;;;;5033868;28;20049;-84
2022/10/22 12:01:26;;;;;;;12.98;8.18;;;16.20;99.90;;;;;;5041761;28;20587;-85
2022/10/22 12:03:56;;;;;;;13.48;7.95;;;16.20;99.90;;;;;;5053038;28;20044;-83
2022/10/22 12:06:26;;;;;;;15.65;8.60;;;16.10;99.90;;;;;;5053217;28;20037;-84
2022/10/22 12:08:53;;;;;;;15.90;9.05;;;16.10;99.90;;;;;;5071928;28;20052;-84
2022/10/22 12:11:18;;;;;;;13.38;8.63;;;16.10;99.90;;;;;;5054620;28;20065;-85
2022/10/22 12:14:17;;;;;;;15.45;8.98;;;16.00;99.90;;;;;;5045968;28;20083;-85
2022/10/22 12:16:50;;;;;;;12.70;8.88;;;16.00;99.90;;;;;;5028518;28;20075;-85
2022/10/22 12:19:21;;;;;;;14.40;8.82;;;15.90;99.90;;;;;;5049891;28;20041;-85
2022/10/22 12:22:00;;;;;;;11.93;8.23;;;15.90;99.90;;;;;;5038138;28;20403;-85
2022/10/22 12:24:33;;;;;;;15.27;10.30;;;15.90;99.90;;;;;;5056266;28;20468;-85
2022/10/22 12:27:02;;;;;;;17.88;8.43;;;15.80;99.90;;;;;;5055370;28;20592;-85
2022/10/22 12:29:31;;;;;;;14.52;8.98;;;15.80;99.90;;;;;;5038470;28;20072;-84
2022/10/22 12:32:02;;;;;;;16.52;9.10;;;15.80;99.90;;;;;;5062883;28;20107;-84
2022/10/22 12:34:31;;;;;;;12.75;8.15;;;15.80;99.90;;;;;;5026000;28;20044;-84
2022/10/22 12:36:57;;;;;;;12.95;7.68;;;15.80;99.90;;;;;;5035824;28;20044;-85
2022/10/22 12:39:26;;;;;;;14.45;8.02;;;15.70;99.90;;;;;;5017229;28;20044;-86
2022/10/22 12:41:53;;;;;;;15.38;7.75;;;15.70;99.90;;;;;;5031838;28;20048;-86
2022/10/22 12:44:19;;;;;;;15.07;7.78;;;15.70;99.90;;;;;;5043165;28;20423;-85
2022/10/22 12:46:49;;;;;;;12.55;8.52;;;15.70;99.90;;;;;;5045893;28;20044;-85
2022/10/22 12:49:22;;;;;;;17.83;8.90;;;15.80;99.90;;;;;;5075007;28;20036;-83
2022/10/22 12:51:51;;;;;;;11.85;7.57;;;15.80;99.90;;;;;;5069481;28;21390;-85
2022/10/22 12:54:28;;;;;;;11.45;8.32;;;15.90;99.90;;;;;;5030809;28;20048;-85